Terminal Aerodrome Forecast
Issued by NWS Quad Cities IA IL

Home | Current Version | Previous Version | Text Only | Print | Product List | Glossary On
Versions: 1 2 3 4 5 6 7 8 9 10 11 12 13 14 15 16 17 18 19
739
FTUS43 KDVN 110533
TAFMLI
TAF
KMLI 110533Z 1106/1206 17005KT P6SM BKN090
     FM111700 22011KT P6SM BKN150
     FM112100 30015G23KT P6SM BKN040
     FM120000 31020G30KT P6SM OVC020=

USA.gov is the U.S. government's official web portal to all federal, state and local government web resources and services.